sensor_id;sensor_type;location;lat;lon;timestamp;temperature;humidity
21282;DHT22;10800;53.096;18.328;2023-04-01T00:04:41;10.20;99.90
21282;DHT22;10800;53.096;18.328;2023-04-01T00:09:47;10.20;99.90
21282;DHT22;10800;53.096;18.328;2023-04-01T00:14:53;10.20;99.90
21282;DHT22;10800;53.096;18.328;2023-04-01T00:19:58;10.10;99.90
21282;DHT22;10800;53.096;18.328;2023-04-01T00:25:05;10.10;99.90
21282;DHT22;10800;53.096;18.328;2023-04-01T00:30:11;10.10;99.90
21282;DHT22;10800;53.096;18.328;2023-04-01T00:35:16;10.10;99.90
21282;DHT22;10800;53.096;18.328;2023-04-01T00:40:37;10.10;99.90
21282;DHT22;10800;53.096;18.328;2023-04-01T00:45:43;10.10;99.90
21282;DHT22;10800;53.096;18.328;2023-04-01T00:50:56;10.10;99.90
21282;DHT22;10800;53.096;18.328;2023-04-01T00:56:04;10.10;99.90
21282;DHT22;10800;53.096;18.328;2023-04-01T01:01:10;10.10;99.90
21282;DHT22;10800;53.096;18.328;2023-04-01T01:22:52;10.00;99.90
21282;DHT22;10800;53.096;18.328;2023-04-01T01:38:29;10.00;99.90
21282;DHT22;10800;53.096;18.328;2023-04-01T01:43:40;10.00;99.90
21282;DHT22;10800;53.096;18.328;2023-04-01T01:48:48;10.00;99.90
21282;DHT22;10800;53.096;18.328;2023-04-01T01:53:55;10.00;99.90
21282;DHT22;10800;53.096;18.328;2023-04-01T01:59:05;10.00;99.90
21282;DHT22;10800;53.096;18.328;2023-04-01T02:04:13;9.90;99.90
21282;DHT22;10800;53.096;18.328;2023-04-01T02:09:20;9.90;99.90
21282;DHT22;10800;53.096;18.328;2023-04-01T02:14:34;9.80;99.90
21282;DHT22;10800;53.096;18.328;2023-04-01T02:19:38;9.70;99.90
21282;DHT22;10800;53.096;18.328;2023-04-01T02:24:44;9.60;99.90
21282;DHT22;10800;53.096;18.328;2023-04-01T02:29:51;9.60;99.90
21282;DHT22;10800;53.096;18.328;2023-04-01T02:34:57;9.60;99.90
21282;DHT22;10800;53.096;18.328;2023-04-01T02:40:06;9.50;99.90
21282;DHT22;10800;53.096;18.328;2023-04-01T02:45:12;9.50;99.90
21282;DHT22;10800;53.096;18.328;2023-04-01T02:50:18;9.40;99.90
21282;DHT22;10800;53.096;18.328;2023-04-01T02:55:23;9.40;99.90
21282;DHT22;10800;53.096;18.328;2023-04-01T03:00:29;9.40;99.90
21282;DHT22;10800;53.096;18.328;2023-04-01T03:05:34;9.30;99.90
21282;DHT22;10800;53.096;18.328;2023-04-01T03:10:39;9.40;99.90
21282;DHT22;10800;53.096;18.328;2023-04-01T03:15:45;9.30;99.90
21282;DHT22;10800;53.096;18.328;2023-04-01T03:20:51;9.20;99.90
21282;DHT22;10800;53.096;18.328;2023-04-01T03:25:56;9.30;99.90
21282;DHT22;10800;53.096;18.328;2023-04-01T03:31:01;9.20;99.90
21282;DHT22;10800;53.096;18.328;2023-04-01T03:36:07;9.20;99.90
21282;DHT22;10800;53.096;18.328;2023-04-01T03:41:17;9.10;99.90
21282;DHT22;10800;53.096;18.328;2023-04-01T03:46:22;9.10;99.90
21282;DHT22;10800;53.096;18.328;2023-04-01T03:51:28;9.10;99.90
21282;DHT22;10800;53.096;18.328;2023-04-01T03:56:35;9.10;99.90
21282;DHT22;10800;53.096;18.328;2023-04-01T04:01:41;9.10;99.90
21282;DHT22;10800;53.096;18.328;2023-04-01T04:06:54;9.00;99.90
21282;DHT22;10800;53.096;18.328;2023-04-01T04:12:00;8.90;99.90
21282;DHT22;10800;53.096;18.328;2023-04-01T04:17:05;8.80;99.90
21282;DHT22;10800;53.096;18.328;2023-04-01T04:22:13;8.70;99.90
21282;DHT22;10800;53.096;18.328;2023-04-01T04:27:20;8.60;99.90
21282;DHT22;10800;53.096;18.328;2023-04-01T04:32:26;8.50;99.90
21282;DHT22;10800;53.096;18.328;2023-04-01T04:37:36;8.40;99.90
21282;DHT22;10800;53.096;18.328;2023-04-01T04:42:41;8.30;99.90
21282;DHT22;10800;53.096;18.328;2023-04-01T04:47:51;8.10;99.90
21282;DHT22;10800;53.096;18.328;2023-04-01T04:53:04;8.10;99.90
21282;DHT22;10800;53.096;18.328;2023-04-01T04:58:23;7.90;99.90
21282;DHT22;10800;53.096;18.328;2023-04-01T05:03:36;7.80;99.90
21282;DHT22;10800;53.096;18.328;2023-04-01T05:08:43;7.80;99.90
21282;DHT22;10800;53.096;18.328;2023-04-01T05:13:49;7.70;99.90
21282;DHT22;10800;53.096;18.328;2023-04-01T05:18:54;7.70;99.90
21282;DHT22;10800;53.096;18.328;2023-04-01T05:24:07;7.70;99.90
21282;DHT22;10800;53.096;18.328;2023-04-01T05:29:13;7.50;99.90
21282;DHT22;10800;53.096;18.328;2023-04-01T05:34:19;7.50;99.90
21282;DHT22;10800;53.096;18.328;2023-04-01T05:39:24;7.50;99.90
21282;DHT22;10800;53.096;18.328;2023-04-01T05:44:30;7.40;99.90
21282;DHT22;10800;53.096;18.328;2023-04-01T05:49:35;7.40;99.90
21282;DHT22;10800;53.096;18.328;2023-04-01T05:54:41;7.40;99.90
21282;DHT22;10800;53.096;18.328;2023-04-01T05:59:46;7.50;99.90
21282;DHT22;10800;53.096;18.328;2023-04-01T06:04:55;7.40;99.90
21282;DHT22;10800;53.096;18.328;2023-04-01T06:10:00;7.50;99.90
21282;DHT22;10800;53.096;18.328;2023-04-01T06:15:40;7.50;99.90
21282;DHT22;10800;53.096;18.328;2023-04-01T06:42:31;7.60;99.90
21282;DHT22;10800;53.096;18.328;2023-04-01T06:53:35;7.70;99.90
21282;DHT22;10800;53.096;18.328;2023-04-01T06:58:44;7.60;99.90
21282;DHT22;10800;53.096;18.328;2023-04-01T07:04:00;7.70;99.90
21282;DHT22;10800;53.096;18.328;2023-04-01T07:09:16;7.70;99.90
21282;DHT22;10800;53.096;18.328;2023-04-01T07:14:41;7.80;99.90
21282;DHT22;10800;53.096;18.328;2023-04-01T07:20:38;7.80;99.90
21282;DHT22;10800;53.096;18.328;2023-04-01T07:25:29;7.90;99.90
21282;DHT22;10800;53.096;18.328;2023-04-01T07:35:46;7.80;99.90
21282;DHT22;10800;53.096;18.328;2023-04-01T07:46:50;7.80;99.90
21282;DHT22;10800;53.096;18.328;2023-04-01T08:14:38;7.70;99.90
21282;DHT22;10800;53.096;18.328;2023-04-01T08:20:01;7.60;99.90
21282;DHT22;10800;53.096;18.328;2023-04-01T08:25:05;7.60;99.90
21282;DHT22;10800;53.096;18.328;2023-04-01T08:30:25;7.60;99.90
21282;DHT22;10800;53.096;18.328;2023-04-01T08:35:40;7.50;99.90
21282;DHT22;10800;53.096;18.328;2023-04-01T08:41:00;7.50;99.90
21282;DHT22;10800;53.096;18.328;2023-04-01T08:46:37;7.50;99.90
21282;DHT22;10800;53.096;18.328;2023-04-01T08:57:20;7.80;99.90
21282;DHT22;10800;53.096;18.328;2023-04-01T09:14:02;8.20;99.90
21282;DHT22;10800;53.096;18.328;2023-04-01T09:25:02;8.20;99.90
21282;DHT22;10800;53.096;18.328;2023-04-01T09:30:33;8.30;99.90
21282;DHT22;10800;53.096;18.328;2023-04-01T09:35:47;8.30;99.90
21282;DHT22;10800;53.096;18.328;2023-04-01T09:41:02;8.20;99.90
21282;DHT22;10800;53.096;18.328;2023-04-01T09:46:11;8.20;99.90
21282;DHT22;10800;53.096;18.328;2023-04-01T10:02:40;8.20;99.90
21282;DHT22;10800;53.096;18.328;2023-04-01T10:46:26;8.30;99.90
21282;DHT22;10800;53.096;18.328;2023-04-01T10:56:36;8.40;99.90
21282;DHT22;10800;53.096;18.328;2023-04-01T11:02:22;8.30;99.90
21282;DHT22;10800;53.096;18.328;2023-04-01T11:13:25;8.30;99.90
21282;DHT22;10800;53.096;18.328;2023-04-01T11:24:05;8.30;99.90
21282;DHT22;10800;53.096;18.328;2023-04-01T11:56:49;8.40;99.90
21282;DHT22;10800;53.096;18.328;2023-04-01T12:01:55;8.50;99.90
21282;DHT22;10800;53.096;18.328;2023-04-01T12:07:19;8.60;99.90
21282;DHT22;10800;53.096;18.328;2023-04-01T12:12:38;8.80;99.90
21282;DHT22;10800;53.096;18.328;2023-04-01T12:17:53;8.90;99.90
21282;DHT22;10800;53.096;18.328;2023-04-01T12:23:04;9.00;99.90
21282;DHT22;10800;53.096;18.328;2023-04-01T12:55:45;9.70;99.90
21282;DHT22;10800;53.096;18.328;2023-04-01T13:06:29;9.50;99.90
21282;DHT22;10800;53.096;18.328;2023-04-01T13:17:18;9.40;99.90
21282;DHT22;10800;53.096;18.328;2023-04-01T13:28:09;9.40;99.90
21282;DHT22;10800;53.096;18.328;2023-04-01T13:33:27;9.30;99.90
21282;DHT22;10800;53.096;18.328;2023-04-01T13:43:58;9.20;99.90
21282;DHT22;10800;53.096;18.328;2023-04-01T14:10:36;8.80;99.90
21282;DHT22;10800;53.096;18.328;2023-04-01T14:15:58;8.70;99.90
21282;DHT22;10800;53.096;18.328;2023-04-01T14:43:08;8.30;99.90
21282;DHT22;10800;53.096;18.328;2023-04-01T14:48:23;8.20;99.90
21282;DHT22;10800;53.096;18.328;2023-04-01T14:53:36;8.10;99.90
21282;DHT22;10800;53.096;18.328;2023-04-01T14:58:44;7.90;99.90
21282;DHT22;10800;53.096;18.328;2023-04-01T15:09:44;7.60;99.90
21282;DHT22;10800;53.096;18.328;2023-04-01T15:31:42;7.30;99.90
21282;DHT22;10800;53.096;18.328;2023-04-01T15:37:09;7.20;99.90
21282;DHT22;10800;53.096;18.328;2023-04-01T15:42:21;7.00;99.90
21282;DHT22;10800;53.096;18.328;2023-04-01T15:47:34;6.90;99.90
21282;DHT22;10800;53.096;18.328;2023-04-01T16:14:44;6.30;99.90
21282;DHT22;10800;53.096;18.328;2023-04-01T16:20:17;6.30;99.90
21282;DHT22;10800;53.096;18.328;2023-04-01T16:31:03;6.20;99.90
21282;DHT22;10800;53.096;18.328;2023-04-01T16:36:13;6.10;99.90
21282;DHT22;10800;53.096;18.328;2023-04-01T16:41:29;6.00;99.90
21282;DHT22;10800;53.096;18.328;2023-04-01T16:52:16;6.00;99.90
21282;DHT22;10800;53.096;18.328;2023-04-01T17:03:15;5.90;99.90
21282;DHT22;10800;53.096;18.328;2023-04-01T17:08:52;5.80;99.90
21282;DHT22;10800;53.096;18.328;2023-04-01T17:30:16;5.40;99.90
21282;DHT22;10800;53.096;18.328;2023-04-01T17:35:27;5.50;99.90
21282;DHT22;10800;53.096;18.328;2023-04-01T17:40:34;5.40;99.90
21282;DHT22;10800;53.096;18.328;2023-04-01T18:02:03;5.20;99.90
21282;DHT22;10800;53.096;18.328;2023-04-01T18:07:16;5.10;99.90
21282;DHT22;10800;53.096;18.328;2023-04-01T18:12:24;5.10;99.90
21282;DHT22;10800;53.096;18.328;2023-04-01T18:28:42;5.00;99.90
21282;DHT22;10800;53.096;18.328;2023-04-01T18:34:08;5.00;99.90
21282;DHT22;10800;53.096;18.328;2023-04-01T18:39:35;4.90;99.90
21282;DHT22;10800;53.096;18.328;2023-04-01T18:45:17;5.00;99.90
21282;DHT22;10800;53.096;18.328;2023-04-01T18:55:59;4.90;99.90
21282;DHT22;10800;53.096;18.328;2023-04-01T19:06:30;4.90;99.90
21282;DHT22;10800;53.096;18.328;2023-04-01T19:22:52;4.80;99.90
21282;DHT22;10800;53.096;18.328;2023-04-01T19:33:52;4.80;99.90
21282;DHT22;10800;53.096;18.328;2023-04-01T20:00:58;4.70;99.90
21282;DHT22;10800;53.096;18.328;2023-04-01T20:06:16;4.70;99.90
21282;DHT22;10800;53.096;18.328;2023-04-01T20:17:17;4.60;99.90
21282;DHT22;10800;53.096;18.328;2023-04-01T20:44:08;4.30;99.90
21282;DHT22;10800;53.096;18.328;2023-04-01T21:27:20;4.30;99.90
21282;DHT22;10800;53.096;18.328;2023-04-01T21:32:41;4.30;99.90
21282;DHT22;10800;53.096;18.328;2023-04-01T21:54:42;4.30;99.90
21282;DHT22;10800;53.096;18.328;2023-04-01T22:00:07;4.30;99.90
21282;DHT22;10800;53.096;18.328;2023-04-01T22:05:31;4.30;99.90
21282;DHT22;10800;53.096;18.328;2023-04-01T22:43:03;4.20;99.90
21282;DHT22;10800;53.096;18.328;2023-04-01T22:59:02;4.20;99.90
21282;DHT22;10800;53.096;18.328;2023-04-01T23:04:08;4.20;99.90
21282;DHT22;10800;53.096;18.328;2023-04-01T23:09:33;4.20;99.90
21282;DHT22;10800;53.096;18.328;2023-04-01T23:14:40;4.20;99.90
21282;DHT22;10800;53.096;18.328;2023-04-01T23:36:01;4.20;99.90
21282;DHT22;10800;53.096;18.328;2023-04-01T23:41:28;4.20;99.90
21282;DHT22;10800;53.096;18.328;2023-04-01T23:46:35;4.20;99.90
21282;DHT22;10800;53.096;18.328;2023-04-01T23:51:57;4.20;99.90
21282;DHT22;10800;53.096;18.328;2023-04-01T23:57:05;4.20;99.90
